Time;durP1;ratioP1;P1;durP2;ratioP2;P2;SDS_P1;SDS_P2;PMS_P1;PMS_P2;Temp;Humidity;BMP_temperature;BMP_pressure;BME280_temperature;BME280_humidity;BME280_pressure;Samples;Min_cycle;Max_cycle;Signal;HPM_P1;HPM_P2
2023/03/21 00:02:02;;;;;;;52.30;47.40;;;;;;;10.36;72.91;100392.11;110342;1266;22861;-78
2023/03/21 00:04:36;;;;;;;52.80;47.60;;;;;;;10.36;72.89;100390.04;109848;1265;22436;-80
2023/03/21 00:07:20;;;;;;;51.80;46.50;;;;;;;10.33;73.00;100393.27;110513;1266;22032;-79
2023/03/21 00:09:54;;;;;;;53.10;48.00;;;;;;;10.35;73.11;100385.90;110113;1260;21974;-79
2023/03/21 00:12:36;;;;;;;54.60;49.00;;;;;;;10.36;73.10;100384.80;110770;1260;23622;-79
2023/03/21 00:15:09;;;;;;;52.30;46.90;;;;;;;10.38;72.98;100384.77;110681;1264;21988;-79
2023/03/21 00:17:45;;;;;;;51.90;46.80;;;;;;;10.35;72.96;100380.67;109584;1261;23078;-79
2023/03/21 00:20:17;;;;;;;51.50;46.70;;;;;;;10.37;73.00;100380.45;109643;1269;22048;-78
2023/03/21 00:22:46;;;;;;;51.10;45.90;;;;;;;10.40;73.23;100380.16;109479;1270;21991;-79
2023/03/21 00:25:17;;;;;;;;;;;;;;;10.39;73.11;100378.09;109597;1270;21965;-79
2023/03/21 00:27:49;;;;;;;51.20;45.70;;;;;;;10.30;73.33;100373.52;109803;1265;22012;-79
2023/03/21 00:30:39;;;;;;;51.30;46.00;;;;;;;10.29;73.24;100369.73;109111;1275;22008;-79
2023/03/21 00:33:08;;;;;;;51.60;46.30;;;;;;;10.31;73.17;100369.17;109465;1271;23132;-80
2023/03/21 00:35:56;;;;;;;51.60;46.30;;;;;;;10.31;73.15;100372.27;109759;1266;21973;-79
2023/03/21 00:38:40;;;;;;;53.20;47.80;;;;;;;10.29;73.17;100367.67;110472;1266;22045;-80
2023/03/21 00:41:15;;;;;;;53.50;48.00;;;;;;;10.28;73.21;100367.52;110200;1266;21974;-79
2023/03/21 00:44:04;;;;;;;54.50;49.10;;;;;;;10.26;73.08;100368.29;110301;1266;21972;-80
2023/03/21 00:46:34;;;;;;;52.10;46.90;;;;;;;10.23;73.02;100370.13;110298;1266;22848;-78
2023/03/21 00:49:20;;;;;;;50.90;45.90;;;;;;;10.20;73.23;100369.20;110722;1259;21977;-80
2023/03/21 00:51:52;;;;;;;53.80;48.50;;;;;;;10.20;73.21;100371.11;110545;1259;22677;-79
2023/03/21 00:54:28;;;;;;;54.20;48.90;;;;;;;10.18;73.21;100369.77;110779;1251;23018;-79
2023/03/21 00:57:02;;;;;;;54.50;49.20;;;;;;;10.18;73.28;100366.65;110232;1265;21953;-79
2023/03/21 00:59:31;;;;;;;52.40;47.10;;;;;;;10.17;73.30;100363.20;110398;1264;22434;-80
2023/03/21 01:02:00;;;;;;;51.20;46.00;;;;;;;10.18;73.29;100360.22;110422;1264;21970;-82
2023/03/21 01:04:35;;;;;;;50.60;45.60;;;;;;;10.17;73.29;100358.51;110344;1265;22458;-80
2023/03/21 01:07:10;;;;;;;51.20;45.90;;;;;;;10.16;73.37;100356.47;110009;1265;21989;-79
2023/03/21 01:09:39;;;;;;;54.20;48.70;;;;;;;10.14;73.29;100352.55;110006;1265;23053;-80
2023/03/21 01:12:15;;;;;;;53.90;48.60;;;;;;;10.11;73.47;100349.33;110175;1265;21979;-80
2023/03/21 01:14:44;;;;;;;54.90;49.40;;;;;;;10.10;73.52;100344.16;110032;1265;23596;-78
2023/03/21 01:17:13;;;;;;;53.50;47.80;;;;;;;10.10;73.53;100343.98;109826;1265;23794;-78
2023/03/21 01:19:42;;;;;;;54.10;48.80;;;;;;;10.11;73.57;100340.99;109719;1270;22891;-78
2023/03/21 01:22:20;;;;;;;54.30;48.90;;;;;;;10.10;73.57;100338.09;109984;1264;21991;-78
2023/03/21 01:24:51;;;;;;;57.30;51.30;;;;;;;10.09;73.46;100343.69;109775;1268;21937;-79
2023/03/21 01:27:31;;;;;;;55.40;49.70;;;;;;;10.05;73.31;100346.61;109817;1268;23041;-79
2023/03/21 01:30:03;;;;;;;53.80;48.40;;;;;;;10.03;73.30;100342.34;109132;1274;23870;-79
2023/03/21 01:32:42;;;;;;;52.20;46.80;;;;;;;10.00;73.47;100334.95;109184;1274;22001;-79
2023/03/21 01:35:12;;;;;;;52.40;47.00;;;;;;;9.99;73.50;100332.20;108808;1280;23056;-79
2023/03/21 01:37:43;;;;;;;51.80;46.40;;;;;;;10.00;73.65;100332.17;108777;1276;23615;-79
2023/03/21 01:40:23;;;;;;;54.70;48.90;;;;;;;10.00;73.63;100334.44;108622;1282;22362;-80
2023/03/21 01:42:56;;;;;;;52.50;47.10;;;;;;;9.97;73.66;100339.06;108917;1277;22258;-80
2023/03/21 01:46:09;;;;;;;52.70;47.50;;;;;;;9.98;73.73;100344.93;108983;1280;23058;-80
2023/03/21 01:49:33;;;;;;;50.80;45.10;;;;;;;9.94;73.82;100344.54;108831;1279;23149;-78
2023/03/21 01:52:22;;;;;;;51.90;46.60;;;;;;;9.93;73.72;100344.77;109147;1279;23534;-78
2023/03/21 01:55:16;;;;;;;52.90;47.40;;;;;;;9.92;73.69;100344.27;108970;1275;21993;-78
2023/03/21 01:58:06;;;;;;;56.50;49.40;;;;;;;9.90;73.58;100339.30;108953;1275;22000;-78
2023/03/21 02:00:54;;;;;;;53.50;47.80;;;;;;;9.88;73.68;100343.40;109056;1275;23746;-80
2023/03/21 02:03:36;;;;;;;53.00;47.30;;;;;;;9.87;73.74;100340.46;109025;1275;23721;-79
2023/03/21 02:07:03;;;;;;;52.10;46.80;;;;;;;9.85;73.64;100338.60;109974;1266;21979;-79
2023/03/21 02:09:41;;;;;;;50.30;45.50;;;;;;;9.81;73.73;100338.92;109148;1273;22003;-78
2023/03/21 02:12:17;;;;;;;50.40;45.40;;;;;;;9.82;73.86;100338.19;109548;1272;22770;-78
2023/03/21 02:14:49;;;;;;;46.20;41.60;;;;;;;9.83;73.75;100338.88;109221;1272;21990;-79
2023/03/21 02:18:06;;;;;;;54.00;48.40;;;;;;;9.83;73.81;100333.84;109460;1272;22444;-78
2023/03/21 02:21:45;;;;;;;56.30;50.50;;;;;;;9.81;73.82;100331.61;109457;1272;21989;-79
2023/03/21 02:24:36;;;;;;;55.70;49.90;;;;;;;9.77;74.04;100336.80;108985;1276;22861;-79
2023/03/21 02:27:20;;;;;;;58.80;50.80;;;;;;;9.77;73.99;100338.55;109180;1272;23403;-79
2023/03/21 02:30:31;;;;;;;54.20;48.30;;;;;;;9.78;74.01;100333.64;109452;1272;22971;-79
2023/03/21 02:33:24;;;;;;;51.30;46.00;;;;;;;9.75;74.02;100332.87;109510;1272;23479;-78
2023/03/21 02:36:40;;;;;;;52.40;47.30;;;;;;;9.76;73.86;100330.59;109550;1272;21993;-80
2023/03/21 02:39:36;;;;;;;50.90;45.40;;;;;;;9.74;73.98;100332.39;108574;1283;22043;-78
2023/03/21 02:42:29;;;;;;;49.50;44.20;;;;;;;9.76;74.19;100332.33;108386;1283;22007;-79
2023/03/21 02:45:07;;;;;;;48.50;43.50;;;;;;;9.75;73.87;100325.90;108542;1283;22001;-80
2023/03/21 02:47:52;;;;;;;50.80;45.10;;;;;;;9.75;73.83;100319.51;109054;1276;22002;-79
2023/03/21 02:50:55;;;;;;;49.90;44.70;;;;;;;9.73;73.82;100321.99;109078;1276;21850;-79
2023/03/21 02:53:34;;;;;;;48.60;43.60;;;;;;;9.72;73.91;100327.95;108699;1282;22002;-78
2023/03/21 02:56:09;;;;;;;47.80;42.60;;;;;;;9.72;73.78;100327.59;108657;1282;23040;-78
2023/03/21 02:58:46;;;;;;;51.30;44.60;;;;;;;9.73;73.87;100333.30;108910;1279;22011;-79
2023/03/21 03:01:14;;;;;;;47.90;42.80;;;;;;;9.74;73.87;100331.88;109082;1275;22032;-79
2023/03/21 03:03:50;;;;;;;55.40;49.40;;;;;;;9.73;73.80;100336.26;109123;1275;21985;-79
2023/03/21 03:06:28;;;;;;;56.60;50.00;;;;;;;9.72;73.77;100336.79;109179;1275;23842;-79
2023/03/21 03:09:26;;;;;;;50.50;43.00;;;;;;;9.68;73.89;100337.64;109113;1275;22138;-79
2023/03/21 03:12:36;;;;;;;44.90;40.30;;;;;;;9.64;73.83;100336.58;109362;1275;21828;-80
2023/03/21 03:15:30;;;;;;;44.30;39.80;;;;;;;9.61;73.78;100334.06;107425;1276;2133686;-79
2023/03/21 03:18:20;;;;;;;45.40;40.70;;;;;;;9.57;73.68;100337.33;109458;1271;21984;-79
2023/03/21 03:21:24;;;;;;;44.30;39.60;;;;;;;9.53;73.82;100341.61;109502;1271;21981;-79
2023/03/21 03:24:07;;;;;;;;;;;;;;;9.51;73.83;100340.99;109572;1271;23752;-78
2023/03/21 03:26:41;;;;;;;43.00;38.30;;;;;;;9.42;74.02;100338.34;109009;1277;22236;-77
2023/03/21 03:29:16;;;;;;;45.10;40.30;;;;;;;9.43;74.02;100338.64;109019;1277;22524;-80
2023/03/21 03:32:00;;;;;;;42.40;38.10;;;;;;;9.45;73.90;100338.23;109506;1271;21994;-78
2023/03/21 03:34:38;;;;;;;45.00;40.40;;;;;;;9.45;73.90;100341.19;110389;1266;21976;-78
2023/03/21 03:37:20;;;;;;;45.00;40.20;;;;;;;9.47;73.91;100340.44;109919;1266;21974;-78
2023/03/21 03:40:25;;;;;;;41.90;37.70;;;;;;;9.47;73.79;100345.13;110125;1266;22014;-79
2023/03/21 03:43:17;;;;;;;40.40;36.20;;;;;;;9.44;73.62;100342.42;110214;1266;22121;-78
2023/03/21 03:46:11;;;;;;;40.60;35.10;;;;;;;9.42;73.70;100340.42;110776;1259;22721;-77
2023/03/21 03:49:03;;;;;;;38.60;34.70;;;;;;;9.43;73.73;100342.33;110897;1260;22002;-79
2023/03/21 03:51:58;;;;;;;37.50;33.50;;;;;;;9.43;73.59;100345.63;110660;1259;22008;-76
2023/03/21 03:54:43;;;;;;;38.30;34.20;;;;;;;9.39;73.48;100346.08;110669;1259;22973;-79
2023/03/21 03:57:14;;;;;;;37.60;33.60;;;;;;;9.38;73.53;100344.54;110669;1259;21971;-79
2023/03/21 03:59:47;;;;;;;40.10;35.80;;;;;;;9.39;73.53;100345.37;111036;1259;23742;-78
2023/03/21 04:02:31;;;;;;;37.90;33.90;;;;;;;9.39;73.46;100344.67;110953;1259;21969;-79
2023/03/21 04:05:03;;;;;;;39.10;34.90;;;;;;;9.42;73.53;100344.24;110467;1266;21992;-80
2023/03/21 04:07:38;;;;;;;37.00;33.20;;;;;;;9.44;73.43;100345.05;110100;1266;24309;-80
2023/03/21 04:10:11;;;;;;;38.00;33.90;;;;;;;9.44;73.25;100345.91;110022;1265;22038;-79
2023/03/21 04:12:43;;;;;;;40.30;36.00;;;;;;;9.44;73.22;100347.64;110085;1264;21976;-78
2023/03/21 04:15:23;;;;;;;43.10;36.80;;;;;;;9.43;73.10;100347.17;110609;1265;21975;-80
2023/03/21 04:18:02;;;;;;;37.90;33.90;;;;;;;9.41;73.10;100347.77;110512;1265;25122;-79
2023/03/21 04:20:33;;;;;;;36.70;32.80;;;;;;;9.40;73.04;100343.27;110303;1264;23793;-80
2023/03/21 04:23:10;;;;;;;36.10;32.30;;;;;;;9.39;72.93;100340.88;109557;1265;23034;-80
2023/03/21 04:25:41;;;;;;;;;;;;;;;9.38;73.00;100346.81;110234;1264;21951;-81
2023/03/21 04:28:28;;;;;;;35.40;31.80;;;;;;;9.26;73.09;100350.33;110571;1264;22589;-81
2023/03/21 04:31:08;;;;;;;36.60;32.60;;;;;;;9.22;73.26;100350.80;110168;1264;21971;-80
2023/03/21 04:34:03;;;;;;;36.90;33.00;;;;;;;9.18;73.19;100352.32;110247;1264;21958;-81
2023/03/21 04:36:37;;;;;;;42.80;36.00;;;;;;;9.16;73.16;100355.84;110468;1264;22475;-79
2023/03/21 04:39:12;;;;;;;36.80;32.90;;;;;;;9.15;73.11;100357.45;110207;1264;23807;-79
2023/03/21 04:41:48;;;;;;;35.70;31.90;;;;;;;9.13;73.10;100357.33;110982;1259;22724;-78
2023/03/21 04:44:20;;;;;;;36.20;32.40;;;;;;;9.12;73.09;100358.05;111040;1259;21973;-78
2023/03/21 04:46:52;;;;;;;37.80;32.30;;;;;;;9.13;73.03;100366.02;110651;1259;23052;-80
2023/03/21 04:49:25;;;;;;;37.90;33.80;;;;;;;9.14;73.10;100369.27;110857;1259;21980;-78
2023/03/21 04:51:54;;;;;;;33.80;30.30;;;;;;;9.13;73.09;100369.30;110776;1259;22157;-78
2023/03/21 04:54:22;;;;;;;32.80;29.40;;;;;;;9.09;73.00;100369.42;110567;1260;23048;-78
2023/03/21 04:56:51;;;;;;;36.30;32.40;;;;;;;9.07;73.04;100372.63;110634;1260;21976;-78
2023/03/21 04:59:23;;;;;;;35.30;31.00;;;;;;;9.04;72.97;100374.98;110800;1259;21963;-80
2023/03/21 05:01:55;;;;;;;34.40;30.90;;;;;;;9.00;72.87;100373.02;110225;1266;23627;-77
2023/03/21 05:04:26;;;;;;;34.70;31.20;;;;;;;8.94;72.95;100370.24;110377;1266;23703;-77
2023/03/21 05:06:57;;;;;;;37.90;32.10;;;;;;;8.91;72.95;100374.33;110025;1266;21994;-79
2023/03/21 05:09:26;;;;;;;35.70;32.00;;;;;;;8.90;73.10;100370.39;110374;1266;22897;-79
2023/03/21 05:11:58;;;;;;;35.30;31.50;;;;;;;8.88;73.11;100371.29;109545;1270;23634;-78
2023/03/21 05:14:27;;;;;;;38.80;33.00;;;;;;;8.84;73.01;100375.92;109191;1271;23634;-79
2023/03/21 05:17:03;;;;;;;37.10;30.70;;;;;;;8.83;73.03;100379.95;109511;1271;21985;-80
2023/03/21 05:19:39;;;;;;;35.00;29.80;;;;;;;8.79;73.14;100377.64;109751;1270;22005;-79
2023/03/21 05:22:10;;;;;;;33.20;29.50;;;;;;;8.78;73.23;100378.02;109659;1271;23659;-78
2023/03/21 05:24:40;;;;;;;33.40;29.70;;;;;;;8.77;73.24;100378.04;109470;1270;22997;-79
2023/03/21 05:27:12;;;;;;;33.70;30.30;;;;;;;8.78;73.26;100380.27;110169;1264;22310;-80
2023/03/21 05:29:44;;;;;;;37.30;30.40;;;;;;;8.78;73.26;100384.27;110451;1264;22013;-80
2023/03/21 05:32:13;;;;;;;33.80;30.30;;;;;;;8.78;73.14;100386.36;110217;1264;24130;-80
2023/03/21 05:34:55;;;;;;;34.20;27.80;;;;;;;8.77;73.10;100390.02;110446;1265;23631;-81
2023/03/21 05:37:24;;;;;;;32.70;28.50;;;;;;;8.75;73.15;100391.83;110716;1259;21984;-79
2023/03/21 05:39:52;;;;;;;31.50;28.30;;;;;;;8.75;73.29;100395.77;110100;1266;23741;-79
2023/03/21 05:42:28;;;;;;;37.90;28.50;;;;;;;8.73;73.19;100397.77;109701;1271;21955;-80
2023/03/21 05:44:57;;;;;;;29.10;26.00;;;;;;;8.72;73.21;100397.80;109030;1277;21989;-80
2023/03/21 05:47:32;;;;;;;31.60;28.30;;;;;;;8.74;73.18;100399.13;109134;1277;23700;-78
2023/03/21 05:50:01;;;;;;;29.80;26.70;;;;;;;8.77;73.08;100403.55;108986;1277;22003;-79
2023/03/21 05:52:33;;;;;;;30.60;27.50;;;;;;;8.77;73.03;100405.98;108837;1282;24323;-81
2023/03/21 05:55:22;;;;;;;29.60;26.30;;;;;;;8.72;73.14;100407.50;108610;1286;23129;-80
2023/03/21 05:57:54;;;;;;;29.80;26.80;;;;;;;8.71;73.28;100413.43;108646;1282;21961;-79
2023/03/21 06:00:29;;;;;;;30.20;26.60;;;;;;;8.71;73.10;100414.66;109127;1275;21984;-80
2023/03/21 06:03:12;;;;;;;29.30;25.10;;;;;;;8.71;73.02;100411.36;108884;1277;22033;-79
2023/03/21 06:05:58;;;;;;;30.10;26.70;;;;;;;8.70;72.96;100412.79;108982;1277;22075;-78
2023/03/21 06:08:33;;;;;;;32.40;26.30;;;;;;;8.71;73.18;100411.02;108642;1281;22055;-79
2023/03/21 06:11:05;;;;;;;30.90;26.30;;;;;;;8.74;73.05;100414.39;108610;1281;23712;-79
2023/03/21 06:13:38;;;;;;;28.00;25.00;;;;;;;8.78;72.97;100419.13;108683;1281;22038;-79
2023/03/21 06:16:08;;;;;;;31.80;25.90;;;;;;;8.81;72.88;100420.46;108733;1280;21977;-79
2023/03/21 06:18:38;;;;;;;27.20;24.20;;;;;;;8.81;72.80;100422.02;109378;1275;21985;-79
2023/03/21 06:21:30;;;;;;;29.20;25.00;;;;;;;8.82;72.94;100424.92;109325;1270;21987;-81
2023/03/21 06:24:03;;;;;;;;;;;;;;;8.85;72.80;100428.31;109639;1270;21961;-81
2023/03/21 06:26:32;;;;;;;33.50;26.10;;;;;;;8.79;72.80;100431.25;110013;1266;21983;-80
2023/03/21 06:29:05;;;;;;;28.70;25.00;;;;;;;8.84;72.96;100429.56;109975;1266;23759;-78
2023/03/21 06:31:34;;;;;;;30.40;25.00;;;;;;;8.89;72.92;100431.83;110086;1266;22007;-80
2023/03/21 06:34:04;;;;;;;28.60;24.60;;;;;;;8.91;72.73;100433.67;110986;1258;22004;-80
2023/03/21 06:36:33;;;;;;;32.40;25.90;;;;;;;8.95;72.75;100434.44;110914;1260;23132;-80
2023/03/21 06:39:03;;;;;;;28.80;25.80;;;;;;;9.00;72.68;100432.57;110977;1259;23049;-81
2023/03/21 06:41:34;;;;;;;27.80;24.60;;;;;;;9.03;72.46;100434.37;110293;1266;21975;-79
2023/03/21 06:44:06;;;;;;;26.50;23.70;;;;;;;9.06;72.35;100435.13;110087;1266;21996;-80
2023/03/21 06:46:40;;;;;;;27.60;22.30;;;;;;;9.12;72.40;100436.16;110181;1266;21998;-80
2023/03/21 06:49:16;;;;;;;25.50;22.90;;;;;;;9.19;72.37;100435.61;110065;1266;22428;-80
2023/03/21 06:51:47;;;;;;;29.10;23.30;;;;;;;9.28;72.27;100438.64;109625;1271;23049;-80
2023/03/21 06:54:19;;;;;;;25.90;22.60;;;;;;;9.37;72.04;100439.07;109469;1271;22122;-79
2023/03/21 06:57:00;;;;;;;29.60;25.20;;;;;;;9.41;72.07;100443.80;109583;1271;23589;-81
2023/03/21 06:59:40;;;;;;;28.40;25.30;;;;;;;9.46;71.93;100444.68;109480;1265;23010;-79
2023/03/21 07:02:14;;;;;;;31.00;27.70;;;;;;;9.49;71.81;100443.04;110136;1266;22086;-80
2023/03/21 07:04:55;;;;;;;28.20;24.30;;;;;;;9.56;71.89;100448.36;109521;1272;22044;-81
2023/03/21 07:07:28;;;;;;;24.90;22.30;;;;;;;9.66;71.86;100449.96;109647;1272;22565;-80
2023/03/21 07:10:03;;;;;;;28.90;23.40;;;;;;;9.81;71.82;100452.07;109998;1266;22868;-80
2023/03/21 07:12:45;;;;;;;24.60;21.10;;;;;;;9.93;71.52;100452.54;110195;1266;22603;-80
2023/03/21 07:15:40;;;;;;;24.20;20.20;;;;;;;10.04;71.11;100457.55;109973;1266;23708;-77
2023/03/21 07:18:13;;;;;;;23.20;20.10;;;;;;;10.12;70.90;100459.19;109647;1270;22993;-81
2023/03/21 07:20:49;;;;;;;23.00;20.40;;;;;;;10.22;70.86;100458.34;109904;1270;23381;-80
2023/03/21 07:23:24;;;;;;;22.90;20.50;;;;;;;10.36;70.66;100455.98;109702;1270;22995;-79
2023/03/21 07:26:18;;;;;;;26.30;20.80;;;;;;;10.50;70.54;100458.09;109599;1270;23061;-80
2023/03/21 07:29:01;;;;;;;21.90;19.50;;;;;;;10.64;70.04;100459.67;109867;1265;22403;-81
2023/03/21 07:31:46;;;;;;;25.80;21.60;;;;;;;10.73;69.52;100464.05;110432;1265;21996;-81
2023/03/21 07:34:31;;;;;;;20.20;18.00;;;;;;;10.76;68.93;100463.94;110084;1263;22126;-80
2023/03/21 07:37:08;;;;;;;21.80;18.60;;;;;;;10.76;68.53;100463.61;109750;1271;22003;-80
2023/03/21 07:39:46;;;;;;;21.70;19.60;;;;;;;10.81;68.55;100468.27;109578;1271;21972;-81
2023/03/21 07:42:33;;;;;;;28.60;25.80;;;;;;;10.87;68.21;100472.94;109667;1268;21999;-79
2023/03/21 07:45:11;;;;;;;21.40;19.30;;;;;;;10.86;67.63;100470.35;109813;1271;22238;-80
2023/03/21 07:47:47;;;;;;;23.40;21.10;;;;;;;10.84;67.27;100469.20;109861;1271;22123;-81
2023/03/21 07:50:29;;;;;;;21.10;18.70;;;;;;;10.88;67.33;100473.78;109668;1271;23059;-80
2023/03/21 07:53:11;;;;;;;20.60;18.60;;;;;;;10.93;67.25;100473.73;110216;1265;24112;-81
2023/03/21 07:55:54;;;;;;;28.20;25.20;;;;;;;10.95;66.88;100474.90;110855;1260;21991;-82
2023/03/21 07:58:28;;;;;;;26.90;24.00;;;;;;;10.98;66.75;100476.73;111206;1259;23608;-81
2023/03/21 08:01:00;;;;;;;;;;;;;;;11.00;66.61;100476.10;110834;1259;23005;-78
2023/03/21 08:03:31;;;;;;;25.80;23.30;;;;;;;10.87;66.44;100473.64;110960;1260;21977;-79
2023/03/21 08:06:15;;;;;;;24.70;21.20;;;;;;;10.73;65.98;100476.57;110842;1259;22608;-80
2023/03/21 08:09:01;;;;;;;20.40;18.40;;;;;;;10.67;66.07;100477.14;111032;1260;23736;-82
2023/03/21 08:11:30;;;;;;;23.00;20.60;;;;;;;10.65;65.86;100476.86;110989;1259;21968;-80
2023/03/21 08:14:06;;;;;;;23.30;18.90;;;;;;;10.58;65.63;100477.81;110312;1265;21988;-82
2023/03/21 08:16:40;;;;;;;23.10;20.80;;;;;;;10.49;65.63;100480.23;110156;1264;21979;-82
2023/03/21 08:19:11;;;;;;;22.50;19.60;;;;;;;10.41;65.44;100483.83;110421;1265;21966;-80
2023/03/21 08:21:41;;;;;;;22.10;19.10;;;;;;;10.27;65.47;100486.00;110138;1265;22060;-79
2023/03/21 08:24:10;;;;;;;20.50;18.50;;;;;;;10.23;65.74;100489.98;110470;1265;21958;-81
2023/03/21 08:26:45;;;;;;;21.50;19.30;;;;;;;10.23;65.92;100490.67;110489;1265;21945;-80
2023/03/21 08:29:16;;;;;;;33.60;30.50;;;;;;;10.21;65.95;100488.47;109947;1270;22995;-80
2023/03/21 08:31:49;;;;;;;25.90;23.30;;;;;;;10.25;66.24;100492.67;110155;1265;21988;-81
2023/03/21 08:34:21;;;;;;;29.10;26.30;;;;;;;10.34;66.42;100497.43;110650;1264;21997;-82
2023/03/21 08:36:57;;;;;;;26.00;23.40;;;;;;;10.43;66.33;100498.36;110554;1264;23078;-80
2023/03/21 08:39:27;;;;;;;27.60;25.00;;;;;;;10.50;66.17;100499.84;110721;1264;23738;-80
2023/03/21 08:42:01;;;;;;;26.80;24.00;;;;;;;10.52;65.89;100501.52;110657;1264;21975;-81
2023/03/21 08:47:55;;;;;;;23.10;20.80;;;;;;;10.52;65.73;100499.25;110077;1266;23595;-81
2023/03/21 08:50:28;;;;;;;20.80;18.70;;;;;;;10.55;65.66;100500.38;110326;1266;21996;-81
2023/03/21 08:53:02;;;;;;;23.00;19.00;;;;;;;10.54;65.38;100504.94;110384;1266;23649;-83
2023/03/21 08:55:36;;;;;;;23.30;18.90;;;;;;;10.49;65.12;100506.85;110177;1266;21988;-82
2023/03/21 08:58:16;;;;;;;;;;;;;;;10.43;65.09;100504.63;110452;1265;22030;-81
2023/03/21 09:00:48;;;;;;;23.60;18.00;;;;;;;10.27;65.15;100501.50;110137;1266;23053;-83
2023/03/21 09:03:29;;;;;;;21.20;19.00;;;;;;;10.21;65.30;100501.69;110297;1266;21887;-80
2023/03/21 09:06:04;;;;;;;21.00;18.60;;;;;;;10.24;65.42;100503.13;110004;1266;22004;-82
2023/03/21 09:08:43;;;;;;;24.50;22.20;;;;;;;10.27;65.49;100503.39;110341;1266;21994;-80
2023/03/21 09:11:17;;;;;;;23.20;20.80;;;;;;;10.36;65.58;100506.06;110288;1266;21998;-81
2023/03/21 09:13:51;;;;;;;35.90;29.00;;;;;;;10.44;65.61;100505.61;110291;1266;21980;-78
2023/03/21 09:16:27;;;;;;;32.10;28.70;;;;;;;10.59;65.84;100507.36;110080;1265;21984;-78
2023/03/21 09:19:16;;;;;;;27.70;24.70;;;;;;;10.75;65.86;100510.48;110080;1266;23625;-76
2023/03/21 09:21:56;;;;;;;34.30;28.40;;;;;;;10.87;65.54;100512.98;110103;1266;21986;-76
2023/03/21 09:24:41;;;;;;;34.70;26.80;;;;;;;10.98;65.37;100514.16;110221;1259;22017;-80
2023/03/21 09:27:24;;;;;;;20.50;18.50;;;;;;;11.07;65.01;100515.73;110981;1245;22864;-79
2023/03/21 09:30:11;;;;;;;;;;;;;;;;;;;;;
2023/03/21 09:32:47;;;;;;;22.60;20.30;;;;;;;10.97;64.23;100514.01;110297;1264;22513;-82
2023/03/21 09:35:36;;;;;;;20.00;18.10;;;;;;;10.99;64.12;100516.54;110552;1265;21985;-81
2023/03/21 09:38:15;;;;;;;22.00;19.90;;;;;;;10.94;63.69;100519.01;110476;1264;22167;-80
2023/03/21 09:41:22;;;;;;;22.90;20.40;;;;;;;10.93;63.82;100520.41;109664;1272;22044;-83
2023/03/21 09:44:13;;;;;;;22.80;20.40;;;;;;;10.99;63.88;100525.25;109658;1267;22000;-80
2023/03/21 09:46:59;;;;;;;22.10;19.90;;;;;;;11.09;63.89;100527.65;109453;1272;21981;-82
2023/03/21 09:49:37;;;;;;;21.50;19.20;;;;;;;11.19;63.52;100527.80;110303;1258;22021;-82
2023/03/21 09:52:18;;;;;;;22.30;20.00;;;;;;;11.22;63.22;100526.66;110191;1266;21981;-81
2023/03/21 09:54:48;;;;;;;22.20;19.90;;;;;;;11.20;62.59;100527.45;110350;1266;21973;-81
2023/03/21 09:57:42;;;;;;;21.80;19.20;;;;;;;11.09;62.36;100525.92;110356;1266;23723;-79
2023/03/21 10:00:28;;;;;;;21.90;19.60;;;;;;;11.01;62.43;100521.19;111094;1259;23934;-79
2023/03/21 10:03:16;;;;;;;22.30;19.90;;;;;;;10.93;62.37;100524.77;110433;1263;23876;-78
2023/03/21 10:05:47;;;;;;;26.60;21.20;;;;;;;10.89;62.48;100526.13;110141;1263;21979;-79
2023/03/21 10:08:40;;;;;;;22.90;20.60;;;;;;;10.88;62.58;100523.75;110336;1263;23589;-79
2023/03/21 10:11:19;;;;;;;22.80;20.60;;;;;;;10.88;62.87;100523.36;110831;1263;22320;-80
2023/03/21 10:13:56;;;;;;;26.10;20.90;;;;;;;10.98;63.10;100523.55;110669;1263;23628;-81
2023/03/21 10:16:36;;;;;;;23.50;21.20;;;;;;;11.09;63.15;100526.11;110959;1263;23046;-81
2023/03/21 10:19:13;;;;;;;24.10;21.60;;;;;;;11.18;63.10;100520.02;110411;1264;22450;-80
2023/03/21 10:21:50;;;;;;;23.30;20.90;;;;;;;11.32;63.31;100520.55;110899;1259;23712;-81
2023/03/21 10:24:37;;;;;;;24.50;21.90;;;;;;;11.44;63.00;100523.19;110223;1265;21982;-80
2023/03/21 10:27:06;;;;;;;22.10;19.70;;;;;;;11.55;62.80;100518.26;109930;1270;22692;-80
2023/03/21 10:29:43;;;;;;;22.10;19.90;;;;;;;11.66;62.52;100521.64;109831;1270;21985;-79
2023/03/21 10:32:19;;;;;;;21.90;19.50;;;;;;;11.74;62.11;100519.27;109970;1270;21985;-81
2023/03/21 10:34:57;;;;;;;23.80;20.50;;;;;;;11.76;61.74;100522.83;109786;1271;21986;-85
2023/03/21 10:37:28;;;;;;;22.70;20.40;;;;;;;11.76;61.39;100522.98;109399;1275;23104;-80
2023/03/21 10:39:57;;;;;;;22.40;20.30;;;;;;;11.76;61.18;100522.66;109225;1275;22262;-81
2023/03/21 10:42:34;;;;;;;23.30;21.10;;;;;;;11.82;61.38;100517.70;109145;1274;24496;-82
2023/03/21 10:45:27;;;;;;;23.10;20.10;;;;;;;11.92;61.33;100520.16;109372;1270;22127;-81
2023/03/21 10:48:07;;;;;;;24.20;20.60;;;;;;;11.95;60.76;100517.59;109922;1270;21995;-79
2023/03/21 10:50:49;;;;;;;22.60;20.00;;;;;;;11.93;60.51;100519.05;109770;1264;23627;-80
2023/03/21 10:53:37;;;;;;;22.90;20.50;;;;;;;11.95;60.30;100524.54;109614;1270;23063;-79
2023/03/21 10:56:34;;;;;;;23.80;21.40;;;;;;;11.87;59.82;100521.19;109352;1270;22335;-82
2023/03/21 10:59:07;;;;;;;22.70;20.20;;;;;;;11.78;59.79;100519.77;109984;1269;22049;-83
2023/03/21 11:01:51;;;;;;;22.90;20.50;;;;;;;11.66;59.57;100521.84;110365;1260;21966;-81
2023/03/21 11:04:25;;;;;;;22.10;20.10;;;;;;;11.55;59.68;100525.55;110929;1258;23638;-83
2023/03/21 11:07:13;;;;;;;24.00;21.40;;;;;;;11.52;59.97;100524.45;110875;1259;22360;-84
2023/03/21 11:10:00;;;;;;;24.20;21.80;;;;;;;11.51;60.24;100520.68;110239;1267;22006;-81
2023/03/21 11:12:36;;;;;;;22.20;20.00;;;;;;;11.57;60.68;100521.48;109232;1273;21989;-82
2023/03/21 11:15:57;;;;;;;21.50;19.40;;;;;;;11.73;60.94;100522.98;109260;1273;22019;-83
2023/03/21 11:18:44;;;;;;;22.90;20.50;;;;;;;11.88;61.00;100522.20;109581;1273;22007;-82
2023/03/21 11:21:16;;;;;;;22.80;20.50;;;;;;;11.99;60.47;100522.45;108860;1278;21967;-83
2023/03/21 11:23:51;;;;;;;22.50;20.10;;;;;;;12.00;60.06;100520.16;109078;1278;21971;-80
2023/03/21 11:26:43;;;;;;;22.00;19.80;;;;;;;12.02;59.88;100522.34;108523;1283;24367;-81
2023/03/21 11:29:30;;;;;;;23.70;21.40;;;;;;;12.01;59.73;100522.73;108868;1275;25018;-82
2023/03/21 11:32:13;;;;;;;21.50;19.00;;;;;;;11.95;59.58;100519.83;109142;1278;21993;-82
2023/03/21 11:35:12;;;;;;;20.20;18.30;;;;;;;11.92;59.73;100519.43;108995;1277;23641;-82
2023/03/21 11:37:52;;;;;;;20.30;18.30;;;;;;;11.93;59.52;100517.48;109453;1273;23753;-82
2023/03/21 11:40:35;;;;;;;24.60;19.30;;;;;;;11.90;59.25;100514.09;109795;1268;21980;-81
2023/03/21 11:43:30;;;;;;;24.70;20.80;;;;;;;11.86;59.15;100510.09;110389;1268;22989;-83
2023/03/21 11:46:13;;;;;;;21.30;19.00;;;;;;;11.77;58.86;100508.49;110206;1270;22001;-82
2023/03/21 11:48:52;;;;;;;21.30;19.30;;;;;;;11.69;59.18;100510.39;110311;1268;21981;-82
2023/03/21 11:51:47;;;;;;;21.40;19.20;;;;;;;11.71;59.35;100508.38;110025;1269;21794;-82
2023/03/21 11:55:03;;;;;;;23.60;20.10;;;;;;;11.77;59.38;100507.61;110178;1269;21987;-78
2023/03/21 11:58:00;;;;;;;24.10;20.20;;;;;;;11.84;59.58;100506.66;110716;1266;21991;-80
2023/03/21 12:01:13;;;;;;;22.40;19.20;;;;;;;11.85;59.41;100503.80;110318;1266;23653;-80
2023/03/21 12:04:00;;;;;;;20.30;18.20;;;;;;;11.85;59.36;100501.90;110745;1259;22087;-80
2023/03/21 12:06:56;;;;;;;21.40;18.30;;;;;;;11.92;59.70;100499.57;110936;1259;21973;-83
2023/03/21 12:09:51;;;;;;;21.60;18.00;;;;;;;12.05;59.58;100496.57;110922;1253;21975;-80